Time;durP1;ratioP1;P1;durP2;ratioP2;P2;SDS_P1;SDS_P2;PMS_P1;PMS_P2;Temp;Humidity;BMP_temperature;BMP_pressure;BME280_temperature;BME280_humidity;BME280_pressure;Samples;Min_cycle;Max_cycle;Signal;HPM_P1;HPM_P2
2024/01/23 00:02:05;;;;;;;8.53;2.63;;;;;;;;;;4992634;28;20323;-86
2024/01/23 00:04:33;;;;;;;12.57;2.67;;;;;;;;;;4993278;28;20204;-86
2024/01/23 00:07:00;;;;;;;5.83;3.03;;;;;;;;;;4992507;28;20244;-84
2024/01/23 00:09:28;;;;;;;2.70;2.13;;;;;;;;;;4992976;28;20212;-85
2024/01/23 00:11:56;;;;;;;7.60;2.27;;;;;;;;;;4992492;28;20310;-83
2024/01/23 00:14:23;;;;;;;6.03;2.63;;;;;;;;;;4994628;28;20579;-85
2024/01/23 00:16:50;;;;;;;4.97;2.20;;;;;;;;;;4995982;28;20294;-86
2024/01/23 00:19:19;;;;;;;5.97;2.07;;;;;;;;;;4996473;28;20219;-86
2024/01/23 00:21:46;;;;;;;6.37;2.27;;;;;;;;;;4996094;28;20776;-86
2024/01/23 00:24:13;;;;;;;3.77;2.20;;;;;;;;;;4996582;28;20204;-87
2024/01/23 00:26:40;;;;;;;3.90;2.13;;;;;;;;;;4995861;28;20236;-86
2024/01/23 00:29:07;;;;;;;2.57;1.90;;;;;;;;;;4996005;28;20208;-85
2024/01/23 00:31:34;;;;;;;5.77;2.60;;;;;;;;;;4978002;28;20720;-86
2024/01/23 00:34:01;;;;;;;8.17;2.10;;;;;;;;;;4971547;28;20236;-85
2024/01/23 00:36:30;;;;;;;1.70;1.60;;;;;;;;;;4976333;28;20303;-86
2024/01/23 00:38:57;;;;;;;6.47;2.43;;;;;;;;;;4976426;28;20209;-85
2024/01/23 00:41:24;;;;;;;3.80;2.30;;;;;;;;;;4975839;28;20241;-85
2024/01/23 00:43:51;;;;;;;4.43;2.43;;;;;;;;;;4976811;28;20220;-86
2024/01/23 00:46:18;;;;;;;3.30;2.43;;;;;;;;;;4976012;28;20661;-86
2024/01/23 00:48:45;;;;;;;2.77;1.70;;;;;;;;;;4976682;28;20213;-86
2024/01/23 00:51:12;;;;;;;4.73;2.00;;;;;;;;;;4976022;28;20315;-85
2024/01/23 00:53:40;;;;;;;5.80;2.93;;;;;;;;;;4979726;28;20255;-85
2024/01/23 00:56:07;;;;;;;8.03;2.43;;;;;;;;;;4976263;28;20228;-86
2024/01/23 00:58:34;;;;;;;3.50;2.30;;;;;;;;;;4976729;28;20208;-85
2024/01/23 01:01:01;;;;;;;5.90;2.13;;;;;;;;;;4975661;28;20244;-85
2024/01/23 01:03:28;;;;;;;8.23;2.53;;;;;;;;;;4976346;28;20205;-85
2024/01/23 01:05:55;;;;;;;4.37;2.13;;;;;;;;;;4975968;28;20233;-86
2024/01/23 01:08:23;;;;;;;6.17;2.53;;;;;;;;;;4976832;28;20213;-86
2024/01/23 01:10:51;;;;;;;7.13;2.60;;;;;;;;;;4976224;28;20265;-86
2024/01/23 01:13:18;;;;;;;6.50;2.27;;;;;;;;;;4976521;28;20208;-86
2024/01/23 01:15:45;;;;;;;3.70;1.97;;;;;;;;;;4976329;28;20241;-87
2024/01/23 01:18:12;;;;;;;4.83;1.87;;;;;;;;;;4976398;28;20204;-86
2024/01/23 01:20:39;;;;;;;5.50;2.20;;;;;;;;;;4996221;28;20240;-86
2024/01/23 01:23:07;;;;;;;3.37;2.10;;;;;;;;;;4998669;28;20200;-86
2024/01/23 01:25:35;;;;;;;5.13;2.10;;;;;;;;;;4997009;28;20220;-86
2024/01/23 01:28:04;;;;;;;7.33;2.40;;;;;;;;;;4998419;28;20216;-85
2024/01/23 01:30:31;;;;;;;4.73;2.87;;;;;;;;;;4996785;28;20236;-86
2024/01/23 01:32:58;;;;;;;4.70;2.10;;;;;;;;;;4990853;28;20743;-86
2024/01/23 01:35:25;;;;;;;3.07;1.90;;;;;;;;;;4976033;28;20228;-86
2024/01/23 01:37:52;;;;;;;2.67;2.27;;;;;;;;;;4975858;28;20259;-86
2024/01/23 01:40:19;;;;;;;7.27;2.60;;;;;;;;;;4976428;28;20201;-86
2024/01/23 01:42:46;;;;;;;4.83;2.10;;;;;;;;;;4976637;28;20216;-86
2024/01/23 01:45:14;;;;;;;3.93;2.20;;;;;;;;;;4975036;28;20235;-85
2024/01/23 01:47:42;;;;;;;5.37;2.07;;;;;;;;;;4995153;28;20250;-86
2024/01/23 01:50:09;;;;;;;3.43;1.90;;;;;;;;;;4994681;28;20257;-86
2024/01/23 01:52:38;;;;;;;2.63;1.97;;;;;;;;;;4994980;28;20215;-85
2024/01/23 01:55:05;;;;;;;4.60;2.40;;;;;;;;;;4994515;28;20348;-85
2024/01/23 01:57:41;;;;;;;3.23;2.00;;;;;;;;;;4994790;28;20228;-86
2024/01/23 02:00:09;;;;;;;4.57;2.47;;;;;;;;;;4994244;28;20212;-87
2024/01/23 02:02:40;;;;;;;3.30;1.70;;;;;;;;;;4994250;28;20247;-86
2024/01/23 02:05:07;;;;;;;3.27;1.90;;;;;;;;;;4994405;28;20216;-87
2024/01/23 02:07:34;;;;;;;2.47;1.77;;;;;;;;;;4992372;28;20204;-85
2024/01/23 02:10:01;;;;;;;3.60;2.20;;;;;;;;;;4994197;28;20223;-87
2024/01/23 02:12:29;;;;;;;3.43;1.93;;;;;;;;;;4994728;28;20227;-86
2024/01/23 02:14:56;;;;;;;2.63;2.03;;;;;;;;;;4994751;28;20286;-87
2024/01/23 02:17:23;;;;;;;5.63;2.53;;;;;;;;;;5013332;28;20674;-87
2024/01/23 02:19:51;;;;;;;8.93;2.30;;;;;;;;;;5013746;28;20204;-86
2024/01/23 02:22:18;;;;;;;3.60;1.93;;;;;;;;;;5013627;28;20342;-87
2024/01/23 02:24:47;;;;;;;2.20;2.00;;;;;;;;;;5014028;28;20215;-86
2024/01/23 02:27:14;;;;;;;4.87;2.07;;;;;;;;;;5013533;28;20764;-87
2024/01/23 02:29:41;;;;;;;3.43;2.37;;;;;;;;;;5014644;28;20674;-87
2024/01/23 02:32:08;;;;;;;1.50;1.50;;;;;;;;;;5013354;28;20242;-87
2024/01/23 02:34:34;;;;;;;4.67;2.50;;;;;;;;;;5014097;28;20212;-87
2024/01/23 02:37:01;;;;;;;9.70;2.40;;;;;;;;;;5013295;28;20245;-86
2024/01/23 02:39:28;;;;;;;6.27;2.40;;;;;;;;;;5013703;28;20261;-87
2024/01/23 02:41:56;;;;;;;3.77;1.77;;;;;;;;;;5013151;28;20786;-86
2024/01/23 02:44:23;;;;;;;4.43;1.93;;;;;;;;;;5009160;28;20211;-87
2024/01/23 02:46:52;;;;;;;7.43;2.40;;;;;;;;;;5013267;28;20231;-87
2024/01/23 02:49:19;;;;;;;3.63;2.00;;;;;;;;;;5013805;28;20242;-87
2024/01/23 02:51:46;;;;;;;5.30;2.13;;;;;;;;;;5013396;28;20243;-87
2024/01/23 02:54:13;;;;;;;4.20;1.93;;;;;;;;;;5013801;28;20215;-88
2024/01/23 02:56:40;;;;;;;7.40;2.40;;;;;;;;;;5013318;28;20231;-87
2024/01/23 02:59:08;;;;;;;9.07;2.27;;;;;;;;;;5013705;28;20207;-87
2024/01/23 03:01:35;;;;;;;5.00;1.87;;;;;;;;;;5012622;28;20235;-87
2024/01/23 03:04:02;;;;;;;5.10;2.00;;;;;;;;;;5013709;28;20254;-87
2024/01/23 03:06:29;;;;;;;7.57;3.13;;;;;;;;;;5013008;28;20235;-86
2024/01/23 03:08:56;;;;;;;4.30;1.90;;;;;;;;;;5013256;28;20611;-88
2024/01/23 03:11:23;;;;;;;5.20;2.00;;;;;;;;;;5012909;28;20242;-87
2024/01/23 03:13:50;;;;;;;2.23;2.07;;;;;;;;;;5013437;28;20202;-86
2024/01/23 03:16:19;;;;;;;2.37;1.90;;;;;;;;;;5012858;28;20238;-87
2024/01/23 03:18:46;;;;;;;6.03;2.10;;;;;;;;;;5013294;28;20605;-87
2024/01/23 03:21:13;;;;;;;1.40;1.40;;;;;;;;;;5012998;28;20289;-87
2024/01/23 03:23:40;;;;;;;2.43;2.23;;;;;;;;;;5013820;28;20215;-87
2024/01/23 03:26:07;;;;;;;7.00;2.00;;;;;;;;;;5012865;28;20242;-86
2024/01/23 03:28:34;;;;;;;2.00;1.90;;;;;;;;;;5012946;28;20218;-87
2024/01/23 03:31:01;;;;;;;2.47;1.57;;;;;;;;;;5012429;28;20729;-86
2024/01/23 03:33:29;;;;;;;3.07;1.90;;;;;;;;;;5012898;28;20207;-85
2024/01/23 03:35:57;;;;;;;1.80;1.67;;;;;;;;;;5012611;28;20674;-87
2024/01/23 03:38:24;;;;;;;1.90;1.80;;;;;;;;;;5012910;28;20238;-87
2024/01/23 03:40:51;;;;;;;2.83;1.53;;;;;;;;;;5011890;28;20250;-85
2024/01/23 03:43:18;;;;;;;1.57;1.47;;;;;;;;;;5012936;28;20238;-86
2024/01/23 03:45:45;;;;;;;3.50;1.30;;;;;;;;;;5012519;28;20253;-86
2024/01/23 03:48:12;;;;;;;1.47;1.40;;;;;;;;;;5012525;28;20688;-85
2024/01/23 03:50:40;;;;;;;1.40;1.40;;;;;;;;;;5015829;28;20239;-86
2024/01/23 03:53:07;;;;;;;1.63;1.60;;;;;;;;;;5017042;28;20211;-87
2024/01/23 03:55:34;;;;;;;3.40;1.80;;;;;;;;;;5011526;28;20606;-87
2024/01/23 03:58:01;;;;;;;1.90;1.60;;;;;;;;;;5016604;28;20227;-85
2024/01/23 04:00:29;;;;;;;2.50;1.60;;;;;;;;;;5016096;28;20247;-88
2024/01/23 04:02:55;;;;;;;1.80;1.47;;;;;;;;;;5023073;28;20243;-87
2024/01/23 04:05:22;;;;;;;1.53;1.43;;;;;;;;;;5016268;28;20670;-87
2024/01/23 04:07:50;;;;;;;1.63;1.40;;;;;;;;;;5016969;28;20206;-87
2024/01/23 04:10:17;;;;;;;2.87;1.77;;;;;;;;;;5016192;28;20207;-87
2024/01/23 04:12:44;;;;;;;2.53;1.70;;;;;;;;;;5016537;28;20207;-86
2024/01/23 04:15:11;;;;;;;3.80;1.60;;;;;;;;;;5015731;28;20732;-87
2024/01/23 04:17:41;;;;;;;2.90;2.00;;;;;;;;;;5016262;28;20759;-87
2024/01/23 04:20:08;;;;;;;2.73;1.97;;;;;;;;;;5015749;28;20215;-86
2024/01/23 04:22:35;;;;;;;3.60;1.80;;;;;;;;;;5016709;28;20298;-87
2024/01/23 04:25:04;;;;;;;1.67;1.57;;;;;;;;;;5016084;28;20223;-85
2024/01/23 04:27:39;;;;;;;2.10;1.67;;;;;;;;;;5017419;28;20245;-87
2024/01/23 04:30:07;;;;;;;3.20;1.90;;;;;;;;;;5016485;28;20245;-87
2024/01/23 04:32:34;;;;;;;5.83;2.20;;;;;;;;;;5016969;28;20215;-87
2024/01/23 04:35:01;;;;;;;4.80;2.40;;;;;;;;;;5015906;28;20207;-86
2024/01/23 04:37:28;;;;;;;4.37;2.33;;;;;;;;;;5015696;28;20262;-87
2024/01/23 04:39:55;;;;;;;4.07;1.90;;;;;;;;;;5015391;28;20666;-85
2024/01/23 04:42:24;;;;;;;1.60;1.50;;;;;;;;;;5014625;28;20249;-85
2024/01/23 04:44:51;;;;;;;6.87;2.00;;;;;;;;;;5015214;28;20672;-86
2024/01/23 04:47:18;;;;;;;2.23;1.77;;;;;;;;;;5014522;28;20247;-86
2024/01/23 04:49:45;;;;;;;2.43;2.03;;;;;;;;;;5015099;28;20207;-86
2024/01/23 04:52:11;;;;;;;7.50;2.03;;;;;;;;;;5014420;28;20239;-86
2024/01/23 04:54:38;;;;;;;2.37;1.93;;;;;;;;;;5015007;28;20293;-85
2024/01/23 04:57:05;;;;;;;2.97;1.70;;;;;;;;;;5014607;28;20242;-86
2024/01/23 04:59:34;;;;;;;3.83;2.03;;;;;;;;;;5014652;28;20211;-86
2024/01/23 05:02:01;;;;;;;4.37;2.27;;;;;;;;;;5009251;28;20234;-85
2024/01/23 05:04:28;;;;;;;3.53;1.90;;;;;;;;;;5015013;28;20211;-86
2024/01/23 05:06:55;;;;;;;1.97;1.63;;;;;;;;;;4999125;28;20718;-85
2024/01/23 05:09:22;;;;;;;4.30;2.23;;;;;;;;;;4995358;28;20212;-86
2024/01/23 05:11:49;;;;;;;7.23;2.37;;;;;;;;;;4994976;28;20247;-85
2024/01/23 05:14:17;;;;;;;2.13;2.00;;;;;;;;;;4995239;28;20204;-86
2024/01/23 05:16:45;;;;;;;3.73;2.00;;;;;;;;;;4994326;28;20245;-84
2024/01/23 05:19:12;;;;;;;4.83;2.33;;;;;;;;;;4994914;28;20211;-85
2024/01/23 05:21:39;;;;;;;7.40;2.60;;;;;;;;;;4994226;28;20258;-85
2024/01/23 05:24:07;;;;;;;3.87;1.93;;;;;;;;;;4994745;28;20255;-85
2024/01/23 05:26:34;;;;;;;3.00;2.23;;;;;;;;;;4994352;28;20243;-85
2024/01/23 05:29:01;;;;;;;5.03;2.50;;;;;;;;;;4994816;28;20215;-86
2024/01/23 05:31:28;;;;;;;3.03;2.57;;;;;;;;;;4994287;28;20243;-86
2024/01/23 05:33:56;;;;;;;10.50;2.40;;;;;;;;;;4995312;28;20211;-86
2024/01/23 05:36:23;;;;;;;3.53;1.90;;;;;;;;;;4993981;28;20322;-85
2024/01/23 05:38:57;;;;;;;8.07;2.73;;;;;;;;;;4994259;28;20232;-86
2024/01/23 05:41:24;;;;;;;8.67;2.10;;;;;;;;;;5004517;28;20246;-86
2024/01/23 05:43:52;;;;;;;5.00;2.57;;;;;;;;;;5014278;28;20298;-85
2024/01/23 05:46:19;;;;;;;3.63;2.63;;;;;;;;;;5013609;28;20239;-86
2024/01/23 05:48:46;;;;;;;7.83;2.23;;;;;;;;;;5013716;28;20203;-85
2024/01/23 05:51:15;;;;;;;4.50;2.37;;;;;;;;;;5013104;28;20282;-86
2024/01/23 05:53:42;;;;;;;9.40;3.37;;;;;;;;;;5013775;28;20727;-85
2024/01/23 05:56:09;;;;;;;8.00;2.67;;;;;;;;;;5013265;28;20640;-85
2024/01/23 05:58:36;;;;;;;3.90;2.50;;;;;;;;;;5013656;28;20234;-84
2024/01/23 06:01:03;;;;;;;2.37;1.77;;;;;;;;;;5013097;28;20721;-85
2024/01/23 06:03:30;;;;;;;3.43;2.20;;;;;;;;;;5013710;28;20218;-86
2024/01/23 06:05:57;;;;;;;5.00;2.63;;;;;;;;;;5008390;28;20322;-86
2024/01/23 06:08:26;;;;;;;5.80;2.57;;;;;;;;;;5013396;28;20689;-86
2024/01/23 06:10:53;;;;;;;4.73;2.67;;;;;;;;;;5013048;28;20755;-85
2024/01/23 06:13:20;;;;;;;9.17;3.13;;;;;;;;;;5012824;28;20253;-84
2024/01/23 06:15:47;;;;;;;9.07;3.10;;;;;;;;;;5012713;28;20235;-85
2024/01/23 06:18:14;;;;;;;6.90;2.63;;;;;;;;;;5012428;28;20231;-85
2024/01/23 06:20:42;;;;;;;6.57;2.37;;;;;;;;;;5012636;28;20250;-85
2024/01/23 06:23:10;;;;;;;9.10;2.80;;;;;;;;;;5012852;28;20207;-84
2024/01/23 06:25:38;;;;;;;3.70;2.30;;;;;;;;;;5012503;28;20253;-83
2024/01/23 06:28:05;;;;;;;7.73;2.37;;;;;;;;;;5012558;28;20574;-85
2024/01/23 06:30:32;;;;;;;5.20;2.87;;;;;;;;;;5012354;28;20581;-85
2024/01/23 06:32:59;;;;;;;7.13;2.93;;;;;;;;;;5013007;28;20209;-88
2024/01/23 06:35:26;;;;;;;8.90;4.80;;;;;;;;;;5012161;28;20626;-83
2024/01/23 06:37:53;;;;;;;2.10;1.90;;;;;;;;;;5011951;28;20227;-82
2024/01/23 06:40:20;;;;;;;11.23;3.73;;;;;;;;;;5012107;28;20229;-85
2024/01/23 06:42:49;;;;;;;10.70;3.43;;;;;;;;;;5012597;28;20269;-84
2024/01/23 06:45:16;;;;;;;4.23;2.73;;;;;;;;;;5012081;28;20211;-85
2024/01/23 06:47:43;;;;;;;6.00;2.17;;;;;;;;;;5012387;28;20211;-85
2024/01/23 06:50:10;;;;;;;5.03;2.53;;;;;;;;;;5011982;28;20210;-85
2024/01/23 06:52:37;;;;;;;10.57;2.70;;;;;;;;;;5012686;28;20209;-85
2024/01/23 06:55:04;;;;;;;3.47;2.43;;;;;;;;;;5011874;28;20597;-84
2024/01/23 06:57:32;;;;;;;9.97;3.10;;;;;;;;;;5011705;28;20715;-85
2024/01/23 07:00:00;;;;;;;7.17;2.70;;;;;;;;;;5010478;28;20203;-84
2024/01/23 07:02:27;;;;;;;8.17;3.53;;;;;;;;;;5010940;28;20238;-85
2024/01/23 07:04:54;;;;;;;12.23;2.60;;;;;;;;;;5011931;28;20207;-85
2024/01/23 07:07:21;;;;;;;9.70;3.10;;;;;;;;;;5011730;28;20252;-85
2024/01/23 07:09:48;;;;;;;5.37;2.60;;;;;;;;;;5012130;28;20210;-85
2024/01/23 07:12:16;;;;;;;4.83;2.00;;;;;;;;;;5011768;28;20249;-85
2024/01/23 07:14:43;;;;;;;4.00;2.40;;;;;;;;;;5007660;28;20234;-85
2024/01/23 07:17:12;;;;;;;3.87;2.20;;;;;;;;;;5011698;28;20242;-88
2024/01/23 07:19:39;;;;;;;6.60;2.60;;;;;;;;;;5012206;28;20207;-86
2024/01/23 07:22:08;;;;;;;10.53;3.27;;;;;;;;;;5026172;28;20242;-85
2024/01/23 07:24:35;;;;;;;3.93;2.13;;;;;;;;;;5032972;28;20220;-84
2024/01/23 07:27:02;;;;;;;6.37;2.83;;;;;;;;;;5035031;28;20263;-86
2024/01/23 07:29:29;;;;;;;4.50;1.87;;;;;;;;;;5035347;28;20218;-86
2024/01/23 07:31:57;;;;;;;10.40;3.03;;;;;;;;;;5034125;28;20297;-84
2024/01/23 07:34:25;;;;;;;6.87;2.70;;;;;;;;;;5035622;28;20236;-84
2024/01/23 07:36:52;;;;;;;5.83;2.57;;;;;;;;;;5035097;28;20237;-83
2024/01/23 07:39:19;;;;;;;6.00;2.90;;;;;;;;;;5035647;28;20636;-84
2024/01/23 07:41:46;;;;;;;5.97;2.50;;;;;;;;;;5035658;28;20240;-84
2024/01/23 07:44:14;;;;;;;10.20;2.93;;;;;;;;;;5023719;28;20199;-84
2024/01/23 07:46:41;;;;;;;6.00;2.60;;;;;;;;;;5015026;28;20324;-80
2024/01/23 07:49:08;;;;;;;7.20;2.83;;;;;;;;;;5015441;28;20203;-79
2024/01/23 07:51:47;;;;;;;12.43;3.33;;;;;;;;;;5014520;28;20761;-80
2024/01/23 07:54:14;;;;;;;6.00;2.73;;;;;;;;;;5028606;28;20200;-80
2024/01/23 07:56:41;;;;;;;5.83;2.83;;;;;;;;;;5035113;28;20248;-80
2024/01/23 07:59:08;;;;;;;7.40;3.03;;;;;;;;;;5034568;28;20718;-82
2024/01/23 08:01:36;;;;;;;10.67;2.37;;;;;;;;;;5034743;28;20287;-83
2024/01/23 08:04:03;;;;;;;3.53;2.20;;;;;;;;;;5034937;28;20563;-82
2024/01/23 08:06:30;;;;;;;10.70;2.90;;;;;;;;;;5034401;28;20611;-82
2024/01/23 08:08:59;;;;;;;5.83;2.30;;;;;;;;;;5034817;28;20205;-82
2024/01/23 08:11:26;;;;;;;5.40;2.40;;;;;;;;;;5034143;28;20244;-81
2024/01/23 08:13:53;;;;;;;5.00;2.43;;;;;;;;;;5034475;28;20265;-82
2024/01/23 08:16:20;;;;;;;10.00;2.23;;;;;;;;;;5034334;28;20237;-81
2024/01/23 08:18:47;;;;;;;7.10;2.87;;;;;;;;;;5034650;28;20218;-82
2024/01/23 08:21:14;;;;;;;6.33;2.53;;;;;;;;;;5034030;28;20307;-81
2024/01/23 08:23:41;;;;;;;4.67;2.53;;;;;;;;;;5034732;28;20210;-81
2024/01/23 08:26:09;;;;;;;9.10;3.07;;;;;;;;;;5034361;28;20284;-86
2024/01/23 08:28:36;;;;;;;5.30;2.10;;;;;;;;;;5034986;28;20204;-85
2024/01/23 08:31:05;;;;;;;10.03;3.00;;;;;;;;;;5034433;28;20709;-86
2024/01/23 08:33:33;;;;;;;4.03;2.57;;;;;;;;;;5035281;28;20259;-81
2024/01/23 08:36:01;;;;;;;5.40;2.60;;;;;;;;;;5034272;28;20240;-85
2024/01/23 08:38:28;;;;;;;8.17;2.23;;;;;;;;;;5034716;28;20237;-84
2024/01/23 08:40:55;;;;;;;5.83;2.27;;;;;;;;;;5034758;28;20263;-84
2024/01/23 08:43:24;;;;;;;12.60;2.40;;;;;;;;;;5034834;28;20598;-85
2024/01/23 08:45:51;;;;;;;11.43;2.63;;;;;;;;;;5035254;28;20384;-84
2024/01/23 08:48:21;;;;;;;7.37;2.80;;;;;;;;;;5035410;28;20207;-84
2024/01/23 08:50:49;;;;;;;7.37;2.27;;;;;;;;;;5035390;28;20314;-85
2024/01/23 08:53:17;;;;;;;5.73;2.83;;;;;;;;;;5035708;28;20244;-85
2024/01/23 08:55:44;;;;;;;6.43;3.03;;;;;;;;;;5034669;28;20234;-84
2024/01/23 08:58:13;;;;;;;7.93;2.83;;;;;;;;;;5034155;28;20227;-85
2024/01/23 09:00:50;;;;;;;7.30;2.73;;;;;;;;;;5034512;28;20637;-84
2024/01/23 09:03:17;;;;;;;8.83;2.60;;;;;;;;;;5034918;28;20201;-84
2024/01/23 09:05:44;;;;;;;1.83;1.70;;;;;;;;;;5033641;28;20283;-83
2024/01/23 09:08:11;;;;;;;7.50;2.97;;;;;;;;;;5033856;28;20321;-83
2024/01/23 09:10:38;;;;;;;10.93;3.33;;;;;;;;;;5033451;28;20253;-83
2024/01/23 09:13:07;;;;;;;9.00;2.90;;;;;;;;;;5034415;28;20210;-86
2024/01/23 09:15:35;;;;;;;13.00;2.90;;;;;;;;;;5019078;28;20243;-87
2024/01/23 09:18:04;;;;;;;6.33;2.10;;;;;;;;;;5011088;28;20202;-89
2024/01/23 09:20:31;;;;;;;14.40;3.03;;;;;;;;;;5015601;28;20289;-87
2024/01/23 09:22:59;;;;;;;10.40;2.70;;;;;;;;;;5016010;28;20335;-88
2024/01/23 09:25:26;;;;;;;5.67;2.20;;;;;;;;;;5015799;28;20262;-88
2024/01/23 09:27:53;;;;;;;7.33;3.27;;;;;;;;;;5012278;28;20210;-88
2024/01/23 09:30:20;;;;;;;5.03;3.43;;;;;;;;;;5013249;28;20878;-88
2024/01/23 09:32:47;;;;;;;9.60;2.97;;;;;;;;;;4995023;28;20226;-88
2024/01/23 09:35:16;;;;;;;9.50;2.80;;;;;;;;;;4988256;28;20218;-88
2024/01/23 09:37:43;;;;;;;7.93;2.97;;;;;;;;;;4995460;28;20265;-89
2024/01/23 09:40:10;;;;;;;7.50;2.80;;;;;;;;;;4994745;28;20231;-88
2024/01/23 09:42:39;;;;;;;6.63;2.70;;;;;;;;;;4993906;28;20224;-85
2024/01/23 09:45:09;;;;;;;7.07;3.03;;;;;;;;;;4993416;28;20579;-85
2024/01/23 09:47:36;;;;;;;10.67;2.77;;;;;;;;;;5004770;28;20199;-85
2024/01/23 09:50:03;;;;;;;13.53;2.40;;;;;;;;;;4992031;28;20213;-84
2024/01/23 09:52:33;;;;;;;6.77;3.00;;;;;;;;;;5001316;28;20285;-84
2024/01/23 09:55:00;;;;;;;4.00;2.27;;;;;;;;;;5000451;28;20818;-84
2024/01/23 09:57:27;;;;;;;3.57;2.30;;;;;;;;;;5011980;28;20231;-84
2024/01/23 09:59:56;;;;;;;3.43;2.53;;;;;;;;;;5011945;28;20257;-83
2024/01/23 10:02:23;;;;;;;9.00;2.23;;;;;;;;;;5011892;28;20833;-83
2024/01/23 10:04:53;;;;;;;11.07;2.97;;;;;;;;;;5012438;28;20571;-84
2024/01/23 10:07:20;;;;;;;10.07;3.00;;;;;;;;;;5010803;28;20259;-83
2024/01/23 10:09:50;;;;;;;2.90;2.43;;;;;;;;;;5012198;28;20222;-83
2024/01/23 10:12:17;;;;;;;3.43;2.33;;;;;;;;;;4991353;28;20232;-83
2024/01/23 10:14:44;;;;;;;10.30;2.87;;;;;;;;;;4983590;28;20212;-83
2024/01/23 10:17:11;;;;;;;9.90;3.00;;;;;;;;;;5007327;28;20812;-85
2024/01/23 10:19:39;;;;;;;6.93;3.00;;;;;;;;;;5005523;28;20215;-86
2024/01/23 10:22:06;;;;;;;12.27;2.90;;;;;;;;;;5011415;28;20239;-86
2024/01/23 10:24:33;;;;;;;7.40;2.80;;;;;;;;;;5012451;28;20237;-83
2024/01/23 10:27:02;;;;;;;2.57;2.37;;;;;;;;;;5010995;28;20227;-83
2024/01/23 10:29:30;;;;;;;5.53;3.40;;;;;;;;;;5003533;28;20302;-84
2024/01/23 10:31:57;;;;;;;7.33;2.47;;;;;;;;;;5011826;28;20235;-85
2024/01/23 10:34:24;;;;;;;5.33;2.03;;;;;;;;;;5012549;28;20265;-86
2024/01/23 10:36:55;;;;;;;4.93;2.33;;;;;;;;;;5013275;28;20235;-84
2024/01/23 10:39:23;;;;;;;3.67;3.10;;;;;;;;;;5013732;28;20239;-86
2024/01/23 10:41:51;;;;;;;9.07;3.10;;;;;;;;;;4997300;28;20266;-84
2024/01/23 10:44:20;;;;;;;5.47;2.50;;;;;;;;;;4992288;28;20209;-84
2024/01/23 10:46:48;;;;;;;6.43;2.87;;;;;;;;;;4991718;28;20239;-85
2024/01/23 10:49:15;;;;;;;9.10;2.67;;;;;;;;;;4991859;28;20582;-85
2024/01/23 10:51:45;;;;;;;10.77;2.93;;;;;;;;;;4992026;28;20696;-85
2024/01/23 10:54:16;;;;;;;6.57;2.43;;;;;;;;;;4993308;28;20242;-84
2024/01/23 10:56:44;;;;;;;3.23;2.40;;;;;;;;;;4993188;28;20286;-84
2024/01/23 10:59:17;;;;;;;7.17;2.57;;;;;;;;;;4992307;28;20236;-86
2024/01/23 11:01:46;;;;;;;9.23;2.33;;;;;;;;;;4993014;28;20267;-85
2024/01/23 11:04:15;;;;;;;5.37;2.13;;;;;;;;;;4993349;28;20204;-83
2024/01/23 11:06:47;;;;;;;5.90;2.13;;;;;;;;;;4993019;28;20264;-86
2024/01/23 11:09:17;;;;;;;8.60;2.93;;;;;;;;;;5008198;28;20236;-84
2024/01/23 11:11:50;;;;;;;6.53;2.70;;;;;;;;;;5014157;28;20248;-85
2024/01/23 11:14:20;;;;;;;3.53;1.77;;;;;;;;;;5012404;28;20203;-85
2024/01/23 11:19:43;;;;;;;3.40;1.83;;;;;;;;;;5108325;28;20530;-83
2024/01/23 11:22:10;;;;;;;12.47;3.37;;;;;;;;;;5090922;27;20267;-85
2024/01/23 11:24:41;;;;;;;4.80;2.67;;;;;;;;;;5080543;28;20252;-83
2024/01/23 11:27:08;;;;;;;7.03;2.30;;;;;;;;;;5065824;28;20225;-84
2024/01/23 11:29:35;;;;;;;11.20;2.93;;;;;;;;;;5048368;28;20209;-87
2024/01/23 11:32:02;;;;;;;6.20;2.67;;;;;;;;;;5049045;28;20245;-86
2024/01/23 11:34:42;;;;;;;11.30;2.23;;;;;;;;;;5049250;28;20547;-86
2024/01/23 11:37:41;;;;;;;10.17;2.33;;;;;;;;;;5065938;28;20311;-87
2024/01/23 11:40:10;;;;;;;5.20;2.13;;;;;;;;;;5065372;28;20205;-86
2024/01/23 11:42:38;;;;;;;6.27;2.40;;;;;;;;;;5068777;28;20244;-82
2024/01/23 11:45:23;;;;;;;7.17;2.70;;;;;;;;;;5067731;28;20241;-84
2024/01/23 11:47:54;;;;;;;4.13;2.20;;;;;;;;;;5062220;28;20209;-84
2024/01/23 11:50:22;;;;;;;4.20;2.57;;;;;;;;;;5065645;28;20894;-85
2024/01/23 11:52:52;;;;;;;10.83;2.90;;;;;;;;;;5068722;28;20205;-86
2024/01/23 11:55:20;;;;;;;8.23;2.77;;;;;;;;;;5068258;28;20209;-86
2024/01/23 11:57:48;;;;;;;6.07;2.57;;;;;;;;;;5068173;28;20237;-86
2024/01/23 12:00:16;;;;;;;5.30;2.10;;;;;;;;;;5066918;28;20237;-87
2024/01/23 12:02:43;;;;;;;8.30;3.17;;;;;;;;;;5068267;28;20205;-86
2024/01/23 12:05:10;;;;;;;3.60;2.00;;;;;;;;;;5067540;28;20683;-86
2024/01/23 12:07:39;;;;;;;5.93;2.23;;;;;;;;;;5068000;28;20209;-85
2024/01/23 12:10:08;;;;;;;3.70;2.27;;;;;;;;;;5057926;28;20214;-85
2024/01/23 12:12:35;;;;;;;6.43;2.33;;;;;;;;;;5068076;28;20201;-88
2024/01/23 12:15:04;;;;;;;5.97;2.50;;;;;;;;;;5068804;28;20255;-89
2024/01/23 12:17:31;;;;;;;11.87;2.47;;;;;;;;;;5067853;28;20221;-87
2024/01/23 12:19:58;;;;;;;2.60;2.03;;;;;;;;;;5067553;28;20634;-88
2024/01/23 12:22:28;;;;;;;7.13;2.27;;;;;;;;;;5067896;28;20248;-88
2024/01/23 12:24:56;;;;;;;10.80;3.10;;;;;;;;;;5067958;28;20645;-87
2024/01/23 12:27:25;;;;;;;10.67;2.50;;;;;;;;;;5067602;28;20320;-85
2024/01/23 12:29:53;;;;;;;5.63;2.33;;;;;;;;;;5060467;28;20631;-86
2024/01/23 12:32:20;;;;;;;16.90;2.67;;;;;;;;;;5053927;28;20245;-85
2024/01/23 12:34:47;;;;;;;7.17;1.97;;;;;;;;;;5055099;28;20217;-87
2024/01/23 12:37:14;;;;;;;4.13;2.00;;;;;;;;;;5053766;28;20242;-85
2024/01/23 12:39:43;;;;;;;7.70;2.70;;;;;;;;;;5055116;28;20225;-87
2024/01/23 12:42:10;;;;;;;2.43;1.70;;;;;;;;;;5054998;28;20296;-85
2024/01/23 12:44:39;;;;;;;3.77;2.10;;;;;;;;;;5055014;28;20621;-89
2024/01/23 12:47:09;;;;;;;10.10;2.80;;;;;;;;;;5054349;28;20236;-88
2024/01/23 12:49:39;;;;;;;7.17;2.83;;;;;;;;;;5049736;28;20221;-89
2024/01/23 12:52:16;;;;;;;5.63;2.43;;;;;;;;;;5055665;28;20241;-88
2024/01/23 12:54:43;;;;;;;8.23;2.83;;;;;;;;;;5047421;28;20194;-87
2024/01/23 12:57:12;;;;;;;13.07;2.83;;;;;;;;;;5053173;28;20244;-86
2024/01/23 12:59:40;;;;;;;2.93;1.70;;;;;;;;;;5052560;28;20237;-84
2024/01/23 13:02:08;;;;;;;7.43;2.50;;;;;;;;;;5052834;28;20288;-83
2024/01/23 13:04:35;;;;;;;7.73;2.43;;;;;;;;;;5053458;28;20280;-84
2024/01/23 13:07:02;;;;;;;6.83;1.87;;;;;;;;;;5052538;28;20228;-82
2024/01/23 13:09:29;;;;;;;7.10;2.60;;;;;;;;;;5049331;28;20672;-87
2024/01/23 13:11:56;;;;;;;5.33;2.20;;;;;;;;;;5052104;28;20603;-87
2024/01/23 13:14:24;;;;;;;9.20;2.43;;;;;;;;;;5050590;28;20910;-88
2024/01/23 13:16:53;;;;;;;4.33;1.83;;;;;;;;;;5049808;28;20244;-85
2024/01/23 13:19:20;;;;;;;10.07;2.83;;;;;;;;;;5046038;28;20227;-87
2024/01/23 13:21:48;;;;;;;6.17;2.23;;;;;;;;;;5043520;28;20237;-87
2024/01/23 13:24:18;;;;;;;8.20;2.47;;;;;;;;;;5052900;28;20221;-86
2024/01/23 13:26:45;;;;;;;5.37;2.50;;;;;;;;;;5051332;28;20743;-85
2024/01/23 13:29:12;;;;;;;7.10;3.10;;;;;;;;;;5048899;28;20570;-84
2024/01/23 13:31:40;;;;;;;5.23;2.33;;;;;;;;;;5046803;28;20229;-83
2024/01/23 13:34:10;;;;;;;6.30;3.00;;;;;;;;;;5051105;28;20614;-85
2024/01/23 13:36:37;;;;;;;9.00;2.67;;;;;;;;;;5051593;28;20313;-85
2024/01/23 13:39:06;;;;;;;7.57;2.70;;;;;;;;;;5049592;28;20230;-84
2024/01/23 13:41:33;;;;;;;6.97;2.60;;;;;;;;;;5048604;28;20249;-85
2024/01/23 13:44:00;;;;;;;8.00;2.87;;;;;;;;;;5050849;28;20198;-84
2024/01/23 13:46:27;;;;;;;4.53;2.97;;;;;;;;;;5050774;28;20263;-85
2024/01/23 13:48:56;;;;;;;8.43;2.70;;;;;;;;;;5051331;28;20210;-86
2024/01/23 13:51:25;;;;;;;7.10;2.30;;;;;;;;;;5050701;28;20252;-85
2024/01/23 13:53:53;;;;;;;8.13;2.83;;;;;;;;;;5051975;28;20202;-85
2024/01/23 13:56:20;;;;;;;4.43;2.17;;;;;;;;;;5051121;28;20722;-85
2024/01/23 13:58:47;;;;;;;5.33;2.17;;;;;;;;;;5051307;28;20214;-84
2024/01/23 14:01:14;;;;;;;5.70;2.40;;;;;;;;;;5042648;28;20240;-86
2024/01/23 14:03:41;;;;;;;4.90;2.17;;;;;;;;;;5051537;28;20271;-85
2024/01/23 14:06:08;;;;;;;8.93;2.53;;;;;;;;;;5050950;28;20245;-87
2024/01/23 14:08:38;;;;;;;8.13;2.53;;;;;;;;;;5050408;28;20214;-85
2024/01/23 14:11:05;;;;;;;8.67;3.10;;;;;;;;;;5043186;28;20248;-85
2024/01/23 14:13:32;;;;;;;7.37;2.13;;;;;;;;;;5051307;28;20205;-84
2024/01/23 14:16:00;;;;;;;3.40;2.40;;;;;;;;;;5050919;28;20234;-86
2024/01/23 14:18:27;;;;;;;7.97;2.70;;;;;;;;;;5051013;28;20325;-87
2024/01/23 14:20:54;;;;;;;8.83;2.57;;;;;;;;;;5045629;28;20245;-87
2024/01/23 14:23:21;;;;;;;9.10;2.20;;;;;;;;;;5054284;28;20264;-84
2024/01/23 14:25:50;;;;;;;8.87;2.87;;;;;;;;;;5050511;28;20222;-84
2024/01/23 14:28:17;;;;;;;9.63;4.10;;;;;;;;;;5049650;28;20210;-84
2024/01/23 14:30:49;;;;;;;7.70;1.83;;;;;;;;;;5045037;28;20237;-86
2024/01/23 14:33:16;;;;;;;5.07;3.33;;;;;;;;;;5051269;28;20206;-86
2024/01/23 14:35:44;;;;;;;5.73;2.60;;;;;;;;;;5051339;28;20237;-86
2024/01/23 14:38:11;;;;;;;5.70;2.10;;;;;;;;;;5050262;28;20318;-84
2024/01/23 14:40:38;;;;;;;7.90;3.00;;;;;;;;;;5048367;28;20583;-85
2024/01/23 14:43:07;;;;;;;4.13;2.40;;;;;;;;;;5050414;28;20206;-84
2024/01/23 14:45:35;;;;;;;9.93;3.13;;;;;;;;;;5049432;28;20779;-85
2024/01/23 14:48:03;;;;;;;4.37;2.03;;;;;;;;;;5050318;28;20210;-87